Time;durP1;ratioP1;P1;durP2;ratioP2;P2;SDS_P1;SDS_P2;PMS_P1;PMS_P2;Temp;Humidity;BMP_temperature;BMP_pressure;BME280_temperature;BME280_humidity;BME280_pressure;Samples;Min_cycle;Max_cycle;Signal;HPM_P1;HPM_P2
2023/11/14 00:00:29;;;;;;;;;;;;;;;20.44;52.14;99334.59;5020432;28;6279;-73
2023/11/14 00:02:55;;;;;;;;;;;;;;;20.44;52.25;99330.97;5022246;28;2198;-74
2023/11/14 00:05:22;;;;;;;;;;;;;;;20.43;52.10;99335.25;5025321;28;2160;-73
2023/11/14 00:07:49;;;;;;;;;;;;;;;20.41;52.04;99330.22;5022160;28;2032;-73
2023/11/14 00:10:15;;;;;;;;;;;;;;;20.42;52.17;99331.66;5019822;28;2207;-73
2023/11/14 00:12:42;;;;;;;;;;;;;;;20.40;52.11;99337.38;5034843;28;2130;-73
2023/11/14 00:15:08;;;;;;;;;;;;;;;20.40;52.32;99337.38;5022383;28;2096;-73
2023/11/14 00:17:35;;;;;;;;;;;;;;;20.39;52.18;99333.03;5020843;28;2108;-73
2023/11/14 00:20:03;;;;;;;;;;;;;;;20.38;52.09;99331.56;5020333;28;2108;-73
2023/11/14 00:22:29;;;;;;;;;;;;;;;20.37;52.40;99335.88;5023245;28;2093;-73
2023/11/14 00:24:57;;;;;;;;;;;;;;;20.36;52.27;99339.41;5021856;28;2123;-73
2023/11/14 00:27:23;;;;;;;;;;;;;;;20.35;52.40;99340.84;5021281;28;2184;-74
2023/11/14 00:29:49;;;;;;;;;;;;;;;20.34;52.28;99345.13;5023326;28;2063;-73
2023/11/14 00:32:16;;;;;;;;;;;;;;;20.32;52.19;99337.19;5021090;28;6287;-73
2023/11/14 00:34:42;;;;;;;;;;;;;;;20.31;52.30;99338.59;5023502;28;2138;-73
2023/11/14 00:37:09;;;;;;;;;;;;;;;20.31;52.35;99344.34;5017830;28;3088;-74
2023/11/14 00:39:36;;;;;;;;;;;;;;;20.31;52.27;99350.09;5020271;28;2134;-73
2023/11/14 00:42:03;;;;;;;;;;;;;;;20.31;52.43;99347.22;5021073;28;2104;-73
2023/11/14 00:44:29;;;;;;;;;;;;;;;20.28;52.55;99339.97;5020409;28;2067;-73
2023/11/14 00:46:55;;;;;;;;;;;;;;;20.28;52.34;99339.97;5021583;28;2147;-74
2023/11/14 00:49:22;;;;;;;;;;;;;;;20.28;52.29;99346.44;5022973;28;2122;-73
2023/11/14 00:51:48;;;;;;;;;;;;;;;20.27;52.47;99344.25;5018868;28;2222;-73
2023/11/14 00:54:15;;;;;;;;;;;;;;;20.26;52.53;99354.31;5022142;28;2230;-73
2023/11/14 00:56:41;;;;;;;;;;;;;;;20.25;52.45;99352.84;5022409;28;2123;-73
2023/11/14 00:59:09;;;;;;;;;;;;;;;20.25;52.36;99358.59;5022214;28;2127;-72
2023/11/14 01:01:36;;;;;;;;;;;;;;;20.24;52.42;99360.72;5020623;28;6278;-74
2023/11/14 01:04:02;;;;;;;;;;;;;;;20.24;52.53;99354.25;5020348;28;2330;-75
2023/11/14 01:06:29;;;;;;;;;;;;;;;20.23;52.56;99361.44;5022903;28;2122;-74
2023/11/14 01:08:56;;;;;;;;;;;;;;;20.23;52.57;99367.19;5020427;28;2080;-74
2023/11/14 01:11:23;;;;;;;;;;;;;;;20.23;52.45;99361.44;5020544;28;2088;-74
2023/11/14 01:13:49;;;;;;;;;;;;;;;20.21;52.64;99370.72;5015679;28;2126;-75
2023/11/14 01:16:16;;;;;;;;;;;;;;;20.21;52.54;99364.25;5019466;28;2159;-74
2023/11/14 01:18:42;;;;;;;;;;;;;;;20.20;52.74;99368.53;5021969;28;2072;-75
2023/11/14 01:21:14;;;;;;;;;;;;;;;20.19;52.55;99358.44;5019321;28;2079;-75
2023/11/14 01:23:41;;;;;;;;;;;;;;;20.19;52.78;99355.56;5019553;28;2213;-74
2023/11/14 01:26:07;;;;;;;;;;;;;;;20.18;52.42;99362.72;5020299;28;2208;-74
2023/11/14 01:28:34;;;;;;;;;;;;;;;20.18;52.53;99354.84;5022959;28;2075;-74
2023/11/14 01:31:00;;;;;;;;;;;;;;;20.17;52.71;99352.66;5020156;28;6185;-74
2023/11/14 01:33:27;;;;;;;;;;;;;;;20.16;52.76;99351.19;5015443;28;2118;-74
2023/11/14 01:35:53;;;;;;;;;;;;;;;20.15;52.59;99344.72;5020192;28;2043;-73
2023/11/14 01:38:20;;;;;;;;;;;;;;;20.15;52.54;99344.72;5020031;28;2099;-74
2023/11/14 01:40:50;;;;;;;;;;;;;;;20.15;52.67;99344.72;5020812;28;2055;-74
2023/11/14 01:43:16;;;;;;;;;;;;;;;20.14;52.75;99336.78;5019961;28;2131;-74
2023/11/14 01:45:43;;;;;;;;;;;;;;;20.13;52.65;99336.03;5020258;28;2139;-74
2023/11/14 01:48:10;;;;;;;;;;;;;;;20.12;52.74;99337.47;5019222;28;2167;-73
2023/11/14 01:50:37;;;;;;;;;;;;;;;20.12;52.45;99351.09;5020433;28;2112;-74
2023/11/14 01:53:03;;;;;;;;;;;;;;;20.13;52.43;99343.94;5021608;28;2071;-74
2023/11/14 01:55:30;;;;;;;;;;;;;;;20.13;52.81;99341.06;5021820;28;2172;-74
2023/11/14 01:57:56;;;;;;;;;;;;;;;20.11;52.74;99350.34;5001794;28;2203;-74
2023/11/14 02:00:24;;;;;;;;;;;;;;;20.11;52.69;99361.13;5034716;28;6097;-74
2023/11/14 02:02:50;;;;;;;;;;;;;;;20.11;52.73;99358.25;5001016;28;2128;-74
2023/11/14 02:05:20;;;;;;;;;;;;;;;20.09;52.75;99359.69;5018925;28;2127;-74
2023/11/14 02:07:46;;;;;;;;;;;;;;;20.08;52.94;99363.94;5019267;28;2012;-74
2023/11/14 02:10:13;;;;;;;;;;;;;;;20.08;52.66;99366.81;5021670;28;2202;-74
2023/11/14 02:12:39;;;;;;;;;;;;;;;20.07;52.61;99362.50;5019187;28;2186;-73
2023/11/14 02:15:06;;;;;;;;;;;;;;;20.07;52.63;99356.75;5016715;28;2082;-74
2023/11/14 02:17:32;;;;;;;;;;;;;;;20.06;52.78;99358.16;5018276;28;2151;-74
2023/11/14 02:19:59;;;;;;;;;;;;;;;20.05;52.66;99359.56;5021794;28;2262;-74
2023/11/14 02:22:25;;;;;;;;;;;;;;;20.04;52.81;99358.13;5019019;28;2194;-74
2023/11/14 02:24:55;;;;;;;;;;;;;;;20.02;52.62;99354.44;5003852;28;2284;-74
2023/11/14 02:27:25;;;;;;;;;;;;;;;20.04;52.83;99366.75;5017263;28;2153;-74
2023/11/14 02:29:53;;;;;;;;;;;;;;;20.02;52.83;99366.69;5015887;28;2068;-74
2023/11/14 02:32:20;;;;;;;;;;;;;;;20.03;52.70;99367.41;5014227;28;6214;-74
2023/11/14 02:34:46;;;;;;;;;;;;;;;20.02;52.78;99366.69;5016262;28;2231;-74
2023/11/14 02:37:13;;;;;;;;;;;;;;;20.01;52.79;99365.22;5017124;28;3221;-74
2023/11/14 02:39:39;;;;;;;;;;;;;;;20.01;52.81;99355.88;5017437;28;2086;-74
2023/11/14 02:42:06;;;;;;;;;;;;;;;20.01;52.65;99359.47;5021231;28;2488;-75
2023/11/14 02:44:32;;;;;;;;;;;;;;;19.99;52.86;99356.53;5017348;28;2124;-74
2023/11/14 02:46:59;;;;;;;;;;;;;;;19.98;52.80;99349.34;5020717;28;2138;-74
2023/11/14 02:49:32;;;;;;;;;;;;;;;19.97;52.64;99353.63;5020866;28;2009;-73
2023/11/14 02:52:01;;;;;;;;;;;;;;;19.99;52.79;99352.94;5020277;28;2094;-74
2023/11/14 02:54:27;;;;;;;;;;;;;;;19.98;52.67;99352.22;5019034;28;2229;-74
2023/11/14 02:56:53;;;;;;;;;;;;;;;19.98;52.68;99360.84;5017194;28;2233;-74
2023/11/14 02:59:20;;;;;;;;;;;;;;;19.97;52.77;99365.13;5018632;28;2270;-73
2023/11/14 03:01:47;;;;;;;;;;;;;;;19.98;52.90;99360.13;5016179;28;6174;-74
2023/11/14 03:04:15;;;;;;;;;;;;;;;19.97;52.86;99373.00;5016974;28;2274;-74
2023/11/14 03:06:41;;;;;;;;;;;;;;;19.96;52.67;99357.91;5019936;28;2135;-74
2023/11/14 03:09:07;;;;;;;;;;;;;;;19.95;52.87;99367.97;5019090;28;2130;-75
2023/11/14 03:11:34;;;;;;;;;;;;;;;19.96;52.74;99368.69;5017933;28;2202;-73
2023/11/14 03:14:01;;;;;;;;;;;;;;;19.95;52.89;99367.22;5016945;28;2134;-74
2023/11/14 03:16:27;;;;;;;;;;;;;;;19.95;52.58;99365.09;5018526;28;2170;-74
2023/11/14 03:18:54;;;;;;;;;;;;;;;19.93;52.67;99365.03;5020115;28;2080;-75
2023/11/14 03:21:21;;;;;;;;;;;;;;;19.94;52.85;99360.75;5017570;28;2162;-74
2023/11/14 03:23:47;;;;;;;;;;;;;;;19.94;52.82;99366.47;5019541;28;2190;-74
2023/11/14 03:26:14;;;;;;;;;;;;;;;19.94;52.59;99366.47;5018578;28;2056;-74
2023/11/14 03:28:40;;;;;;;;;;;;;;;19.93;52.81;99365.03;5019550;28;2222;-74
2023/11/14 03:31:06;;;;;;;;;;;;;;;19.92;52.65;99363.56;5018659;28;6323;-74
2023/11/14 03:33:33;;;;;;;;;;;;;;;19.90;52.84;99366.38;5019847;28;2144;-74
2023/11/14 03:35:59;;;;;;;;;;;;;;;19.93;52.74;99367.91;5018243;28;2123;-74
2023/11/14 03:38:26;;;;;;;;;;;;;;;19.91;52.83;99367.84;5016371;28;2504;-74
2023/11/14 03:40:52;;;;;;;;;;;;;;;19.90;52.65;99374.28;5018957;28;2083;-75
2023/11/14 03:43:19;;;;;;;;;;;;;;;19.91;52.81;99367.84;5019934;28;2151;-75
2023/11/14 03:45:45;;;;;;;;;;;;;;;19.91;52.73;99372.88;5020219;28;2319;-74
2023/11/14 03:48:13;;;;;;;;;;;;;;;19.92;52.63;99375.06;5021186;28;2153;-72
2023/11/14 03:50:39;;;;;;;;;;;;;;;19.93;52.67;99370.78;5019345;28;2265;-65
2023/11/14 03:53:05;;;;;;;;;;;;;;;19.93;52.72;99370.03;5021090;28;2222;-65
2023/11/14 03:55:32;;;;;;;;;;;;;;;19.94;52.77;99366.47;5021205;28;2123;-65
2023/11/14 03:57:59;;;;;;;;;;;;;;;19.97;52.54;99370.84;5022743;28;2059;-65
2023/11/14 04:00:25;;;;;;;;;;;;;;;19.97;52.60;99367.25;5020277;28;6114;-65
2023/11/14 04:02:52;;;;;;;;;;;;;;;19.97;52.82;99353.63;5017988;28;3194;-65
2023/11/14 04:05:19;;;;;;;;;;;;;;;19.99;52.47;99350.06;5019308;28;2199;-65
2023/11/14 04:07:46;;;;;;;;;;;;;;;20.00;52.61;99363.03;5022094;28;2067;-65
2023/11/14 04:10:13;;;;;;;;;;;;;;;20.00;52.68;99358.03;5015339;28;2127;-64
2023/11/14 04:12:39;;;;;;;;;;;;;;;20.01;52.52;99364.50;5021318;28;2116;-65
2023/11/14 04:15:06;;;;;;;;;;;;;;;20.01;52.57;99359.47;5021791;28;2082;-65
2023/11/14 04:17:33;;;;;;;;;;;;;;;20.00;52.48;99363.78;5018651;28;2122;-65
2023/11/14 04:19:59;;;;;;;;;;;;;;;20.01;52.64;99365.22;5023442;28;2214;-65
2023/11/14 04:22:26;;;;;;;;;;;;;;;20.01;52.59;99365.22;5017874;28;2135;-65
2023/11/14 04:24:52;;;;;;;;;;;;;;;20.01;52.44;99373.13;5020669;28;2254;-65
2023/11/14 04:27:18;;;;;;;;;;;;;;;20.00;52.73;99363.78;5023328;28;2065;-65
2023/11/14 04:29:45;;;;;;;;;;;;;;;20.01;52.60;99359.47;5020614;28;2229;-65
2023/11/14 04:32:11;;;;;;;;;;;;;;;20.00;52.42;99358.03;5019152;28;6013;-65
2023/11/14 04:34:38;;;;;;;;;;;;;;;20.00;52.57;99358.03;5020351;28;2106;-65
2023/11/14 04:37:04;;;;;;;;;;;;;;;19.99;52.70;99362.28;5022883;28;2153;-65
2023/11/14 04:39:31;;;;;;;;;;;;;;;20.00;52.64;99345.81;5021838;28;2103;-65
2023/11/14 04:41:58;;;;;;;;;;;;;;;20.01;52.67;99350.13;5019907;28;2130;-65
2023/11/14 04:44:25;;;;;;;;;;;;;;;20.01;52.65;99347.25;5020593;28;2127;-65
2023/11/14 04:46:51;;;;;;;;;;;;;;;20.00;52.47;99352.28;5020802;28;2222;-65
2023/11/14 04:49:18;;;;;;;;;;;;;;;20.01;52.45;99365.22;5023010;28;2122;-65
2023/11/14 04:51:44;;;;;;;;;;;;;;;20.04;52.37;99358.13;5017654;28;2286;-65
2023/11/14 04:54:10;;;;;;;;;;;;;;;20.02;52.71;99355.19;5020184;28;2168;-65
2023/11/14 04:56:37;;;;;;;;;;;;;;;20.03;52.71;99355.94;5017206;28;2167;-65
2023/11/14 04:59:03;;;;;;;;;;;;;;;20.03;52.35;99362.41;5018774;28;2111;-66
2023/11/14 05:01:30;;;;;;;;;;;;;;;20.02;52.75;99366.69;5017952;28;6320;-65
2023/11/14 05:03:56;;;;;;;;;;;;;;;20.01;52.45;99365.22;5020672;28;2418;-65
2023/11/14 05:06:23;;;;;;;;;;;;;;;20.02;52.61;99372.44;5016602;28;2198;-65
2023/11/14 05:08:50;;;;;;;;;;;;;;;20.01;52.66;99359.47;5021622;28;2278;-65
2023/11/14 05:11:17;;;;;;;;;;;;;;;20.02;52.55;99360.19;5018817;28;2206;-65
2023/11/14 05:13:43;;;;;;;;;;;;;;;20.01;52.56;99358.75;5020670;28;2524;-65
2023/11/14 05:16:10;;;;;;;;;;;;;;;20.01;52.73;99353.72;5017480;28;2123;-65
2023/11/14 05:18:49;;;;;;;;;;;;;;;20.01;52.52;99353.72;5017480;28;2993;-65
2023/11/14 05:21:15;;;;;;;;;;;;;;;20.02;52.68;99357.31;5020999;28;2193;-65
2023/11/14 05:23:42;;;;;;;;;;;;;;;20.01;52.60;99345.09;5019642;28;2055;-65
2023/11/14 05:26:08;;;;;;;;;;;;;;;20.02;52.53;99352.31;5017529;28;2083;-65
2023/11/14 05:28:36;;;;;;;;;;;;;;;20.01;52.58;99345.09;5019290;28;2122;-65
2023/11/14 05:31:02;;;;;;;;;;;;;;;20.02;52.57;99343.72;5020410;28;6371;-65
2023/11/14 05:33:29;;;;;;;;;;;;;;;20.04;52.55;99329.41;5019179;28;2147;-65
2023/11/14 05:35:55;;;;;;;;;;;;;;;20.04;52.48;99346.63;5020137;28;2103;-65
2023/11/14 05:38:22;;;;;;;;;;;;;;;20.04;52.71;99349.50;5019320;28;2129;-65
2023/11/14 05:40:48;;;;;;;;;;;;;;;20.04;52.61;99335.13;5018912;28;2107;-65
2023/11/14 05:43:15;;;;;;;;;;;;;;;20.04;52.68;99338.00;5019929;28;2174;-65
2023/11/14 05:45:41;;;;;;;;;;;;;;;20.05;52.48;99339.47;5020924;28;2213;-65
2023/11/14 05:48:08;;;;;;;;;;;;;;;20.03;52.54;99327.91;5020432;28;2111;-65
2023/11/14 05:50:34;;;;;;;;;;;;;;;20.02;52.70;99317.09;5017017;28;2190;-65
2023/11/14 05:53:01;;;;;;;;;;;;;;;20.00;52.74;99323.53;5020886;28;2099;-64
2023/11/14 05:55:27;;;;;;;;;;;;;;;20.05;52.60;99336.59;5020115;28;2020;-65
2023/11/14 05:57:54;;;;;;;;;;;;;;;20.06;52.86;99335.16;5018287;28;2263;-64
2023/11/14 06:00:20;;;;;;;;;;;;;;;20.04;52.59;99329.41;5018347;28;6111;-66
2023/11/14 06:02:47;;;;;;;;;;;;;;;20.04;52.81;99335.13;5020199;28;2375;-66
2023/11/14 06:05:13;;;;;;;;;;;;;;;20.01;52.60;99336.50;5018492;28;3387;-66
2023/11/14 06:07:40;;;;;;;;;;;;;;;20.02;52.71;99332.22;5020076;28;2158;-64
2023/11/14 06:10:07;;;;;;;;;;;;;;;20.03;52.63;99330.06;5017158;28;2217;-63
2023/11/14 06:12:34;;;;;;;;;;;;;;;20.02;52.67;99326.47;5018065;28;2190;-64
2023/11/14 06:15:00;;;;;;;;;;;;;;;20.01;52.60;99336.50;5019980;28;2245;-64
2023/11/14 06:17:27;;;;;;;;;;;;;;;20.02;52.64;99326.47;5018191;28;2210;-64
2023/11/14 06:19:53;;;;;;;;;;;;;;;20.01;52.72;99333.63;5019846;28;2398;-65
2023/11/14 06:22:20;;;;;;;;;;;;;;;19.99;52.70;99342.19;5020044;28;2171;-64
2023/11/14 06:24:46;;;;;;;;;;;;;;;19.99;52.99;99338.59;5017946;28;2170;-63
2023/11/14 06:27:12;;;;;;;;;;;;;;;19.00;48.23;99335.34;5017847;28;2170;-62
2023/11/14 06:29:40;;;;;;;;;;;;;;;18.48;49.56;99349.59;5016966;28;2218;-63
2023/11/14 06:32:06;;;;;;;;;;;;;;;19.06;50.59;99352.72;5020403;28;6158;-65
2023/11/14 06:34:33;;;;;;;;;;;;;;;19.28;49.50;99351.84;5020825;28;2126;-65
2023/11/14 06:36:59;;;;;;;;;;;;;;;19.45;48.67;99359.50;5021337;28;1915;-64
2023/11/14 06:39:26;;;;;;;;;;;;;;;19.21;48.15;99359.56;5019941;28;2114;-63
2023/11/14 06:41:53;;;;;;;;;;;;;;;18.92;48.28;99346.56;5017694;28;2061;-63
2023/11/14 06:44:19;;;;;;;;;;;;;;;18.68;48.27;99352.31;5017027;28;2233;-63
2023/11/14 06:46:46;;;;;;;;;;;;;;;18.66;48.58;99350.13;5018708;28;2226;-63
2023/11/14 06:49:12;;;;;;;;;;;;;;;18.80;48.38;99347.69;5015637;28;2221;-63
2023/11/14 06:51:39;;;;;;;;;;;;;;;18.82;48.47;99350.63;5017386;28;2078;-64
2023/11/14 06:54:05;;;;;;;;;;;;;;;18.81;48.47;99349.16;5017445;28;2151;-63
2023/11/14 06:56:31;;;;;;;;;;;;;;;18.81;48.50;99336.97;5018420;28;2110;-64
2023/11/14 06:58:58;;;;;;;;;;;;;;;19.00;48.35;99358.28;5017913;28;2090;-63
2023/11/14 07:01:24;;;;;;;;;;;;;;;19.25;48.33;99348.94;5015474;28;6009;-64
2023/11/14 07:03:51;;;;;;;;;;;;;;;19.40;47.94;99360.78;5010076;28;3141;-65
2023/11/14 07:06:19;;;;;;;;;;;;;;;19.49;47.79;99353.13;5014428;28;2285;-64
2023/11/14 07:08:45;;;;;;;;;;;;;;;19.50;47.85;99354.59;5019133;28;2300;-64
2023/11/14 07:11:12;;;;;;;;;;;;;;;19.54;47.92;99349.69;5014478;28;3118;-66
2023/11/14 07:13:39;;;;;;;;;;;;;;;19.58;48.15;99346.19;5018785;28;3535;-64
2023/11/14 07:16:09;;;;;;;;;;;;;;;19.59;48.29;99345.50;5017725;28;2164;-64
2023/11/14 07:18:37;;;;;;;;;;;;;;;19.60;48.27;99352.69;5020355;28;2303;-64
2023/11/14 07:21:03;;;;;;;;;;;;;;;19.61;48.37;99354.16;5017022;28;2721;-63
2023/11/14 07:23:30;;;;;;;;;;;;;;;19.61;49.18;99345.56;5019321;28;2261;-66
2023/11/14 07:25:56;;;;;;;;;;;;;;;19.67;49.15;99357.19;5019280;28;3055;-63
2023/11/14 07:28:23;;;;;;;;;;;;;;;19.64;49.13;99370.03;5023293;28;2329;-65
2023/11/14 07:30:51;;;;;;;;;;;;;;;19.64;49.05;99361.41;5023747;28;6280;-65
2023/11/14 07:33:17;;;;;;;;;;;;;;;19.67;49.29;99353.59;5023994;28;2154;-64
2023/11/14 07:35:44;;;;;;;;;;;;;;;19.84;50.73;99346.88;5013857;28;4239;-71
2023/11/14 07:38:10;;;;;;;;;;;;;;;20.18;50.29;99365.59;5020832;28;3704;-70
2023/11/14 07:40:36;;;;;;;;;;;;;;;20.34;50.02;99354.50;5020538;28;3667;-69
2023/11/14 07:43:05;;;;;;;;;;;;;;;20.42;49.67;99351.78;5023191;28;1812;-69
2023/11/14 07:45:31;;;;;;;;;;;;;;;20.47;49.64;99364.81;5022315;28;3651;-69
2023/11/14 07:47:58;;;;;;;;;;;;;;;20.54;49.31;99359.22;5024178;28;1594;-70
2023/11/14 07:50:25;;;;;;;;;;;;;;;20.58;49.22;99359.34;5022743;28;1817;-69
2023/11/14 07:52:52;;;;;;;;;;;;;;;20.39;49.60;99363.94;5026245;28;1618;-71
2023/11/14 07:55:19;;;;;;;;;;;;;;;20.47;49.80;99356.19;5017560;28;2368;-70
2023/11/14 07:57:45;;;;;;;;;;;;;;;20.46;49.64;99357.63;5023364;28;2651;-69
2023/11/14 08:00:12;;;;;;;;;;;;;;;20.38;49.50;99357.44;5020685;28;6196;-70
2023/11/14 08:02:40;;;;;;;;;;;;;;;20.43;49.36;99361.88;5020164;28;3936;-70
2023/11/14 08:05:08;;;;;;;;;;;;;;;20.16;49.45;99368.41;5019999;28;2329;-71
2023/11/14 08:07:34;;;;;;;;;;;;;;;20.49;49.30;99364.88;5019207;28;2581;-74
2023/11/14 08:10:01;;;;;;;;;;;;;;;20.49;48.60;99364.16;5018143;28;2353;-72
2023/11/14 08:12:27;;;;;;;;;;;;;;;20.42;48.14;99374.78;5019368;28;2394;-72
2023/11/14 08:14:54;;;;;;;;;;;;;;;20.48;48.11;99363.44;5020560;28;2373;-71
2023/11/14 08:17:20;;;;;;;;;;;;;;;20.45;47.79;99373.41;5014704;28;2612;-70
2023/11/14 08:19:47;;;;;;;;;;;;;;;20.47;47.20;99373.47;5016050;28;2379;-70
2023/11/14 08:22:13;;;;;;;;;;;;;;;20.45;47.25;99369.81;5019178;28;2340;-69
2023/11/14 08:24:40;;;;;;;;;;;;;;;20.16;46.85;99374.16;5016755;28;2513;-68
2023/11/14 08:27:06;;;;;;;;;;;;;;;20.09;47.33;99370.44;5017074;28;2430;-67
2023/11/14 08:29:34;;;;;;;;;;;;;;;20.08;47.68;99375.44;5019028;28;2862;-72
2023/11/14 08:32:01;;;;;;;;;;;;;;;19.90;47.63;99372.13;5017767;28;6167;-70
2023/11/14 08:34:27;;;;;;;;;;;;;;;19.70;47.82;99365.88;5016975;28;2384;-74
2023/11/14 08:36:54;;;;;;;;;;;;;;;19.92;47.79;99362.84;5018238;28;2366;-73
2023/11/14 08:39:21;;;;;;;;;;;;;;;20.06;47.63;99372.50;5020451;28;2432;-73
2023/11/14 08:41:47;;;;;;;;;;;;;;;20.04;47.58;99361.00;5018124;28;2410;-74
2023/11/14 08:44:14;;;;;;;;;;;;;;;20.05;47.81;99376.09;5019870;28;2362;-74
2023/11/14 08:46:40;;;;;;;;;;;;;;;20.08;48.00;99363.94;4952595;28;10694;-71
2023/11/14 08:49:07;;;;;;;;;;;;;;;20.13;47.83;99369.78;5009768;28;2431;-70
2023/11/14 08:51:34;;;;;;;;;;;;;;;20.16;47.71;99374.16;5020088;28;2497;-71
2023/11/14 08:54:00;;;;;;;;;;;;;;;20.19;47.53;99384.31;5020846;28;2348;-71
2023/11/14 08:56:29;;;;;;;;;;;;;;;20.24;47.40;99386.59;5025039;28;2434;-71
2023/11/14 08:58:56;;;;;;;;;;;;;;;20.24;47.69;99385.88;5021562;28;2733;-71
2023/11/14 09:01:23;;;;;;;;;;;;;;;20.25;47.74;99381.59;5022244;28;6565;-70
2023/11/14 09:03:50;;;;;;;;;;;;;;;20.23;47.63;99378.66;5022894;28;2589;-71
2023/11/14 09:06:16;;;;;;;;;;;;;;;20.24;48.08;99394.50;5025377;28;2294;-71
2023/11/14 09:08:44;;;;;;;;;;;;;;;20.28;48.05;99380.22;5024601;28;2393;-72
2023/11/14 09:11:11;;;;;;;;;;;;;;;20.28;48.28;99391.72;5023111;28;2229;-72
2023/11/14 09:13:37;;;;;;;;;;;;;;;20.27;48.30;99385.25;5022601;28;2379;-71
2023/11/14 09:16:09;;;;;;;;;;;;;;;20.27;48.22;99396.75;5018451;28;2621;-72
2023/11/14 09:18:37;;;;;;;;;;;;;;;20.29;48.66;99384.53;5018566;28;2437;-72
2023/11/14 09:21:04;;;;;;;;;;;;;;;20.30;48.83;99386.03;5016988;28;2431;-71
2023/11/14 09:23:31;;;;;;;;;;;;;;;20.26;48.67;99392.38;5019474;28;2358;-71
2023/11/14 09:25:58;;;;;;;;;;;;;;;20.25;48.86;99378.72;5017879;28;2369;-71
2023/11/14 09:28:24;;;;;;;;;;;;;;;20.27;48.85;99378.75;5019766;28;2468;-71
2023/11/14 09:30:51;;;;;;;;;;;;;;;20.25;48.95;99390.22;5016845;28;6474;-70
2023/11/14 09:33:17;;;;;;;;;;;;;;;20.27;48.87;99378.75;5014967;28;2382;-71
2023/11/14 09:35:44;;;;;;;;;;;;;;;20.25;49.24;99375.84;5017894;28;2413;-71
2023/11/14 09:38:10;;;;;;;;;;;;;;;20.28;49.32;99386.69;5016957;28;2447;-71
2023/11/14 09:40:37;;;;;;;;;;;;;;;20.28;49.30;99385.97;5014323;28;2473;-73
2023/11/14 09:43:06;;;;;;;;;;;;;;;20.32;48.96;99377.44;5020445;28;2424;-72
2023/11/14 09:45:33;;;;;;;;;;;;;;;20.26;49.16;99377.28;5017558;28;2559;-72
2023/11/14 09:48:04;;;;;;;;;;;;;;;20.27;49.12;99373.00;5018005;28;2351;-71
2023/11/14 09:50:31;;;;;;;;;;;;;;;20.28;49.15;99365.84;5019707;28;2347;-74
2023/11/14 09:52:57;;;;;;;;;;;;;;;20.32;49.12;99368.06;5018410;28;2383;-73
2023/11/14 09:55:23;;;;;;;;;;;;;;;20.40;49.31;99356.75;5018265;28;2333;-73
2023/11/14 09:57:50;;;;;;;;;;;;;;;20.35;49.44;99363.84;5018449;28;2331;-71
2023/11/14 10:00:18;;;;;;;;;;;;;;;20.34;49.25;99359.50;5018107;28;6108;-71
2023/11/14 10:02:44;;;;;;;;;;;;;;;20.35;49.42;99361.69;5017135;28;2368;-71
2023/11/14 10:05:11;;;;;;;;;;;;;;;20.33;49.42;99361.66;5018954;28;2320;-71
2023/11/14 10:07:42;;;;;;;;;;;;;;;20.36;49.58;99368.88;5017410;28;2366;-71
2023/11/14 10:10:10;;;;;;;;;;;;;;;20.32;49.41;99362.31;5018054;28;2306;-72
2023/11/14 10:12:37;;;;;;;;;;;;;;;20.40;49.73;99366.09;5014306;28;2420;-72
2023/11/14 10:15:03;;;;;;;;;;;;;;;20.54;49.29;99368.56;5016270;28;2511;-72
2023/11/14 10:17:39;;;;;;;;;;;;;;;20.59;49.24;99370.16;5017876;28;2870;-72
2023/11/14 10:20:07;;;;;;;;;;;;;;;20.65;49.31;99381.06;5017349;28;2454;-71
2023/11/14 10:22:44;;;;;;;;;;;;;;;20.62;49.33;99376.69;5018435;28;2366;-71
2023/11/14 10:25:20;;;;;;;;;;;;;;;20.59;49.37;99373.03;5016832;28;2375;-71
2023/11/14 10:27:47;;;;;;;;;;;;;;;20.61;49.32;99369.47;4957942;28;71047;-71
2023/11/14 10:32:08;;;;;;;;;;;;;;;20.61;49.53;99363.72;5016641;27;10419;-71
2023/11/14 10:34:34;;;;;;;;;;;;;;;20.59;49.35;99355.78;5092273;27;5610;-72
2023/11/14 10:37:04;;;;;;;;;;;;;;;20.59;49.48;99366.53;5103071;27;5843;-76
2023/11/14 10:39:30;;;;;;;;;;;;;;;20.57;49.49;99363.63;5104324;27;5710;-76
2023/11/14 10:41:58;;;;;;;;;;;;;;;20.55;49.70;99366.41;5099412;27;5780;-74
2023/11/14 10:44:24;;;;;;;;;;;;;;;20.51;49.69;99362.06;5089033;28;5745;-75
2023/11/14 10:46:52;;;;;;;;;;;;;;;20.50;50.26;99360.59;5103859;27;5840;-70
2023/11/14 10:49:19;;;;;;;;;;;;;;;20.83;50.03;99369.94;5104048;27;6046;-73
2023/11/14 10:51:46;;;;;;;;;;;;;;;20.84;48.72;99371.38;5104467;27;5774;-71
2023/11/14 10:54:13;;;;;;;;;;;;;;;20.71;49.47;99366.81;5103728;27;6189;-76
2023/11/14 10:56:39;;;;;;;;;;;;;;;20.76;49.37;99379.13;5094855;27;5769;-76
2023/11/14 10:59:18;;;;;;;;;;;;;;;20.72;49.33;99376.91;5082021;28;5828;-74
2023/11/14 11:01:45;;;;;;;;;;;;;;;20.80;49.67;99368.44;5081555;28;6142;-72
2023/11/14 11:04:18;;;;;;;;;;;;;;;21.14;49.09;99364.78;5081204;28;5692;-70
2023/11/14 11:06:44;;;;;;;;;;;;;;;21.03;48.65;99372.50;5076029;27;6334;-70
2023/11/14 11:09:11;;;;;;;;;;;;;;;20.78;49.25;99373.44;5065521;28;6987;-72
2023/11/14 11:11:40;;;;;;;;;;;;;;;20.65;49.73;99375.31;5081530;28;2382;-71
2023/11/14 11:14:08;;;;;;;;;;;;;;;20.60;49.91;99379.53;5080779;28;2595;-70
2023/11/14 11:16:51;;;;;;;;;;;;;;;20.60;49.60;99373.75;5088831;28;2304;-72
2023/11/14 11:19:42;;;;;;;;;;;;;;;20.53;49.91;99372.16;5052151;28;2656;-69
2023/11/14 11:22:10;;;;;;;;;;;;;;;20.58;49.94;99377.31;5034196;28;6487;-74
2023/11/14 11:24:37;;;;;;;;;;;;;;;20.49;50.08;99376.38;5045824;28;2374;-70
2023/11/14 11:27:17;;;;;;;;;;;;;;;20.50;49.98;99380.72;5044147;28;2423;-73
2023/11/14 11:29:56;;;;;;;;;;;;;;;20.75;49.87;99387.03;5046875;28;2359;-72
2023/11/14 11:32:29;;;;;;;;;;;;;;;20.70;50.12;99373.97;5013192;28;6166;-74
2023/11/14 11:35:14;;;;;;;;;;;;;;;20.57;49.73;99381.63;5015192;28;2399;-72
2023/11/14 11:37:43;;;;;;;;;;;;;;;20.62;50.17;99382.44;5011628;28;2647;-71
2023/11/14 11:40:12;;;;;;;;;;;;;;;20.63;50.22;99395.41;5013708;28;2399;-71
2023/11/14 11:42:39;;;;;;;;;;;;;;;20.58;50.31;99390.97;5021414;28;2260;-73
2023/11/14 11:45:06;;;;;;;;;;;;;;;20.58;50.25;99406.06;5015881;28;2348;-72
2023/11/14 11:47:34;;;;;;;;;;;;;;;20.61;50.55;99403.97;5011996;28;2369;-73
2023/11/14 11:50:17;;;;;;;;;;;;;;;20.64;50.15;99414.13;5017665;28;2331;-73
2023/11/14 11:52:56;;;;;;;;;;;;;;;20.68;49.73;99402.69;5022739;28;2441;-72
2023/11/14 11:55:23;;;;;;;;;;;;;;;20.65;50.07;99418.44;5020369;28;2428;-72
2023/11/14 11:57:58;;;;;;;;;;;;;;;20.95;50.00;99426.28;5012058;28;2454;-72
2023/11/14 12:00:25;;;;;;;;;;;;;;;21.17;49.58;99421.00;5013057;28;6340;-72
2023/11/14 12:02:52;;;;;;;;;;;;;;;21.07;49.27;99429.41;5012789;28;2322;-73
2023/11/14 12:05:19;;;;;;;;;;;;;;;20.74;49.69;99422.97;5012085;28;2372;-74
2023/11/14 12:07:46;;;;;;;;;;;;;;;20.60;49.98;99425.53;5012745;28;2364;-73
2023/11/14 12:10:17;;;;;;;;;;;;;;;20.57;50.69;99415.38;5006654;28;2370;-73
2023/11/14 12:12:50;;;;;;;;;;;;;;;20.62;50.54;99416.94;5011875;28;2360;-74
2023/11/14 12:15:17;;;;;;;;;;;;;;;20.63;50.58;99415.53;5007137;28;4229;-73
2023/11/14 12:17:54;;;;;;;;;;;;;;;20.65;50.36;99421.31;5009882;28;4059;-75
2023/11/14 12:20:22;;;;;;;;;;;;;;;20.66;50.33;99412.03;5012106;28;6038;-75
2023/11/14 12:22:49;;;;;;;;;;;;;;;20.77;50.04;99410.06;5011750;28;2485;-75
2023/11/14 12:25:16;;;;;;;;;;;;;;;20.72;50.38;99411.41;5015825;28;2440;-76
2023/11/14 12:27:50;;;;;;;;;;;;;;;20.66;50.39;99412.03;5013327;28;2385;-74
2023/11/14 12:30:17;;;;;;;;;;;;;;;20.59;50.37;99413.31;5001257;28;6195;-76
2023/11/14 12:32:44;;;;;;;;;;;;;;;20.58;50.57;99417.59;4999264;28;2720;-73
2023/11/14 12:35:11;;;;;;;;;;;;;;;20.62;50.26;99406.16;4997945;28;2392;-73
2023/11/14 12:37:37;;;;;;;;;;;;;;;20.64;50.47;99408.38;5000018;28;2358;-72
2023/11/14 12:40:06;;;;;;;;;;;;;;;20.66;50.29;99411.25;4999416;28;2393;-74
2023/11/14 12:42:34;;;;;;;;;;;;;;;20.71;50.17;99412.84;5001661;28;2384;-75
2023/11/14 12:45:08;;;;;;;;;;;;;;;20.67;50.24;99404.13;5001796;28;2364;-74
2023/11/14 12:47:36;;;;;;;;;;;;;;;20.63;50.48;99418.41;4996758;28;2332;-70
2023/11/14 12:50:11;;;;;;;;;;;;;;;20.55;50.61;99418.19;5001857;28;2516;-72
2023/11/14 12:52:40;;;;;;;;;;;;;;;20.49;50.85;99427.41;5000473;28;1716;-72
2023/11/14 12:55:06;;;;;;;;;;;;;;;20.49;51.11;99428.13;4997015;28;2269;-72
2023/11/14 12:57:33;;;;;;;;;;;;;;;20.51;50.64;99424.59;4996860;28;4088;-72
2023/11/14 13:00:00;;;;;;;;;;;;;;;20.50;50.66;99426.72;5005021;28;4284;-72